METAR Data
IDs: Format: Raw Decoded Include TAF

Data at: 0301 UTC 24 Jun 2021

METAR for:KOSU (Columbus/Ohio State, OH, US)
Text:KOSU 240253Z 15004KT 10SM CLR 22/09 A3019 RMK AO2 SLP216 T02170094 53003
Temperature: 21.7°C ( 71°F)
Dewpoint: 9.4°C ( 49°F) [RH = 45%]
Pressure (altimeter):30.19 inches Hg (1022.4 mb) [Sea level pressure: 1021.6 mb]
Winds:from the SSE (150 degrees) at 5 MPH (4 knots; 2.1 m/s)
Visibility:10 or more sm (16+ km)
Ceiling:at least 12,000 feet AGL
Clouds:sky clear below 12,000 feet AGL